createdAt,value
2017-07-06T00:01:40.032Z,22.21
2017-07-06T00:04:07.604Z,22.18
2017-07-06T00:06:35.155Z,22.02
2017-07-06T00:09:02.738Z,22.17
2017-07-06T00:11:30.281Z,22.17
2017-07-06T00:13:58.110Z,22.23
2017-07-06T00:16:25.633Z,22.13
2017-07-06T00:18:53.161Z,22.11
2017-07-06T00:21:20.734Z,22.03
2017-07-06T00:23:48.292Z,22.08
2017-07-06T00:26:15.952Z,22.21
2017-07-06T00:28:43.475Z,22.18
2017-07-06T00:31:11.137Z,22.14
2017-07-06T00:33:38.672Z,22.02
2017-07-06T00:36:06.269Z,22.05
2017-07-06T00:38:33.853Z,21.93
2017-07-06T00:41:01.479Z,21.93
2017-07-06T00:43:29.027Z,21.93
2017-07-06T00:45:56.539Z,21.92
2017-07-06T00:48:24.092Z,21.89
2017-07-06T00:50:51.591Z,21.99
2017-07-06T00:53:19.548Z,21.80
2017-07-06T00:55:47.075Z,21.82
2017-07-06T00:58:14.604Z,21.72
2017-07-06T01:00:42.159Z,21.63
2017-07-06T01:03:09.688Z,21.60
2017-07-06T01:05:37.240Z,21.56
2017-07-06T01:08:04.746Z,21.61
2017-07-06T01:10:32.308Z,21.56
2017-07-06T01:12:59.824Z,21.64
2017-07-06T01:15:27.584Z,21.56
2017-07-06T01:17:55.116Z,21.92
2017-07-06T01:20:22.631Z,22.13
2017-07-06T01:22:50.243Z,22.01
2017-07-06T01:25:17.878Z,22.06
2017-07-06T01:27:45.435Z,21.96
2017-07-06T01:30:13.012Z,21.58
2017-07-06T01:32:40.584Z,21.49
2017-07-06T01:35:08.119Z,21.10
2017-07-06T01:37:35.935Z,20.93
2017-07-06T01:40:03.455Z,20.80
2017-07-06T01:42:31.023Z,20.86
2017-07-06T01:44:58.609Z,20.77
2017-07-06T01:47:26.148Z,21.14
2017-07-06T01:49:53.749Z,21.24
2017-07-06T01:52:21.329Z,21.31
2017-07-06T01:54:48.881Z,21.17
2017-07-06T01:57:16.401Z,21.02
2017-07-06T01:59:44.160Z,21.42
2017-07-06T02:02:11.713Z,21.58
2017-07-06T02:04:39.245Z,21.47
2017-07-06T02:07:06.808Z,21.31
2017-07-06T02:09:34.341Z,21.37
2017-07-06T02:12:02.051Z,21.32
2017-07-06T02:14:29.637Z,21.00
2017-07-06T02:16:57.385Z,20.95
2017-07-06T02:19:24.901Z,20.82
2017-07-06T02:21:52.419Z,20.88
2017-07-06T02:24:20.045Z,20.97
2017-07-06T02:26:47.589Z,21.05
2017-07-06T02:29:15.198Z,20.54
2017-07-06T02:31:42.722Z,20.55
2017-07-06T02:34:10.287Z,20.76
2017-07-06T02:36:37.853Z,20.77
2017-07-06T02:39:05.824Z,20.69
2017-07-06T02:41:33.338Z,20.55
2017-07-06T02:44:01.291Z,20.84
2017-07-06T02:46:28.918Z,20.12
2017-07-06T02:48:56.476Z,20.00
2017-07-06T02:51:24.031Z,19.91
2017-07-06T02:53:51.551Z,19.84
2017-07-06T02:56:19.111Z,19.73
2017-07-06T02:58:46.636Z,19.84
2017-07-06T03:01:14.191Z,19.78
2017-07-06T03:03:41.716Z,20.18
2017-07-06T03:06:09.391Z,20.45
2017-07-06T03:08:36.916Z,20.08
2017-07-06T03:11:04.444Z,19.99
2017-07-06T03:13:32.008Z,19.78
2017-07-06T03:15:59.549Z,20.05
2017-07-06T03:18:27.124Z,19.94
2017-07-06T03:20:54.653Z,20.02
2017-07-06T03:23:22.211Z,19.74
2017-07-06T03:25:49.754Z,20.18
2017-07-06T03:28:17.276Z,20.13
2017-07-06T03:30:44.926Z,20.10
2017-07-06T03:33:12.451Z,19.56
2017-07-06T03:35:40.053Z,19.83
2017-07-06T03:38:07.608Z,19.43
2017-07-06T03:40:35.269Z,19.35
2017-07-06T03:43:02.787Z,19.29
2017-07-06T03:45:30.739Z,19.32
2017-07-06T03:47:58.254Z,19.38
2017-07-06T03:50:25.763Z,19.46
2017-07-06T03:52:53.323Z,19.66
2017-07-06T03:55:20.848Z,19.69
2017-07-06T03:57:48.395Z,19.91
2017-07-06T04:00:15.922Z,19.69
2017-07-06T04:02:43.487Z,19.61
2017-07-06T04:05:11.010Z,19.47
2017-07-06T04:07:38.630Z,19.52
2017-07-06T04:10:06.207Z,19.86
2017-07-06T04:12:33.789Z,19.93
2017-07-06T04:15:01.431Z,19.86
2017-07-06T04:17:28.966Z,19.65
2017-07-06T04:19:56.626Z,19.91
2017-07-06T04:22:24.154Z,20.04
2017-07-06T04:24:52.079Z,20.12
2017-07-06T04:27:19.616Z,19.89
2017-07-06T04:29:47.140Z,20.03
2017-07-06T04:32:14.711Z,20.02
2017-07-06T04:34:42.256Z,19.75
2017-07-06T04:37:09.823Z,20.02
2017-07-06T04:39:37.344Z,20.01
2017-07-06T04:42:04.895Z,19.79
2017-07-06T04:44:32.471Z,19.60
2017-07-06T04:47:00.174Z,19.68
2017-07-06T04:49:27.787Z,19.82
2017-07-06T04:51:55.315Z,20.07
2017-07-06T04:54:22.860Z,20.24
2017-07-06T04:56:50.379Z,20.37
2017-07-06T04:59:18.232Z,20.38
2017-07-06T05:01:45.775Z,20.55
2017-07-06T05:04:13.301Z,20.48
2017-07-06T05:06:40.893Z,20.66
2017-07-06T05:09:08.426Z,20.73
2017-07-06T05:11:36.048Z,20.71
2017-07-06T05:14:03.615Z,20.67
2017-07-06T05:16:31.195Z,20.75
2017-07-06T05:18:58.726Z,20.76
2017-07-06T05:21:26.301Z,20.77
2017-07-06T05:23:53.933Z,20.76
2017-07-06T05:26:21.672Z,20.64
2017-07-06T05:28:49.224Z,20.72
2017-07-06T05:31:16.743Z,20.54
2017-07-06T05:33:44.321Z,20.76
2017-07-06T05:36:11.857Z,20.81
2017-07-06T05:38:39.528Z,20.77
2017-07-06T05:41:07.142Z,20.75
2017-07-06T05:43:34.739Z,20.99
2017-07-06T05:46:02.264Z,21.01
2017-07-06T05:48:29.927Z,21.13
2017-07-06T05:50:57.445Z,21.18
2017-07-06T05:53:24.960Z,20.94
2017-07-06T05:55:52.522Z,21.01
2017-07-06T05:58:20.054Z,20.97
2017-07-06T06:00:47.765Z,21.21
2017-07-06T06:03:15.289Z,20.77
2017-07-06T06:05:43.023Z,20.87
2017-07-06T06:08:10.548Z,21.16
2017-07-06T06:10:38.218Z,21.15
2017-07-06T06:13:05.772Z,21.13
2017-07-06T06:15:33.314Z,21.28
2017-07-06T06:18:01.012Z,21.10
2017-07-06T06:20:28.547Z,20.87
2017-07-06T06:22:56.167Z,21.01
2017-07-06T06:25:23.719Z,21.16
2017-07-06T06:27:51.291Z,21.22
2017-07-06T06:30:18.873Z,21.08
2017-07-06T06:32:46.675Z,21.25
2017-07-06T06:35:14.204Z,21.42
2017-07-06T06:37:41.752Z,21.42
2017-07-06T06:40:09.318Z,21.16
2017-07-06T06:42:36.855Z,21.35
2017-07-06T06:45:04.455Z,21.38
2017-07-06T06:47:32.001Z,21.46
2017-07-06T06:49:59.716Z,21.59
2017-07-06T06:52:27.238Z,21.63
2017-07-06T06:54:54.803Z,21.62
2017-07-06T06:57:22.445Z,21.74
2017-07-06T06:59:49.976Z,21.82
2017-07-06T07:02:17.541Z,22.05
2017-07-06T07:04:45.069Z,22.03
2017-07-06T07:07:12.824Z,21.97
2017-07-06T07:09:40.392Z,21.99
2017-07-06T07:12:07.911Z,22.02
2017-07-06T07:14:35.492Z,21.81
2017-07-06T07:17:03.040Z,21.90
2017-07-06T07:19:30.602Z,22.03
2017-07-06T07:21:58.261Z,22.04
2017-07-06T07:24:25.879Z,22.07
2017-07-06T07:26:53.423Z,22.13
2017-07-06T07:29:21.145Z,22.23
2017-07-06T07:31:48.664Z,22.44
2017-07-06T07:34:16.280Z,22.57
2017-07-06T07:36:43.840Z,22.59
2017-07-06T07:39:11.363Z,22.50
2017-07-06T07:41:38.941Z,22.45
2017-07-06T07:44:06.468Z,22.43
2017-07-06T07:46:34.050Z,22.54
2017-07-06T07:49:01.675Z,22.74
2017-07-06T07:51:29.344Z,22.87
2017-07-06T07:53:56.912Z,22.92
2017-07-06T07:56:24.441Z,23.01
2017-07-06T07:58:52.036Z,23.02
2017-07-06T08:01:19.565Z,23.18
2017-07-06T08:03:47.204Z,23.31
2017-07-06T08:06:14.720Z,23.25
2017-07-06T08:08:42.463Z,23.28
2017-07-06T08:11:09.996Z,23.34
2017-07-06T08:13:37.532Z,23.47
2017-07-06T08:16:05.104Z,23.46
2017-07-06T08:18:32.620Z,23.41
2017-07-06T08:21:00.182Z,23.49
2017-07-06T08:23:27.703Z,23.70
2017-07-06T08:25:55.407Z,23.69
2017-07-06T08:28:22.937Z,23.70
2017-07-06T08:30:50.505Z,23.84
2017-07-06T08:33:18.067Z,24.00
2017-07-06T08:35:45.591Z,24.02
2017-07-06T08:38:13.154Z,24.28
2017-07-06T08:40:40.671Z,24.46
2017-07-06T08:43:08.395Z,24.59
2017-07-06T08:45:36.035Z,24.86
2017-07-06T08:48:03.563Z,24.69
2017-07-06T08:50:31.207Z,24.86
2017-07-06T08:52:58.791Z,24.68
2017-07-06T08:55:26.439Z,24.72
2017-07-06T08:57:53.972Z,24.68
2017-07-06T09:00:21.535Z,24.69
2017-07-06T09:02:49.054Z,24.73
2017-07-06T09:05:16.880Z,24.65
2017-07-06T09:07:44.404Z,24.68
2017-07-06T09:10:11.915Z,24.58
2017-07-06T09:12:39.468Z,24.64
2017-07-06T09:15:06.985Z,24.79
2017-07-06T09:17:34.568Z,24.87
2017-07-06T09:20:02.104Z,25.04
2017-07-06T09:22:29.663Z,25.11
2017-07-06T09:24:57.185Z,25.10
2017-07-06T09:27:25.125Z,25.24
2017-07-06T09:29:52.679Z,25.00
2017-07-06T09:32:20.256Z,25.22
2017-07-06T09:34:47.832Z,25.31
2017-07-06T09:37:15.353Z,25.11
2017-07-06T09:39:42.912Z,25.22
2017-07-06T09:42:10.452Z,25.38
2017-07-06T09:44:38.016Z,25.56
2017-07-06T09:47:05.531Z,25.75
2017-07-06T09:49:33.211Z,25.57
2017-07-06T09:52:00.738Z,25.65
2017-07-06T09:54:28.268Z,25.67
2017-07-06T09:56:55.839Z,25.69
2017-07-06T09:59:23.355Z,25.71
2017-07-06T10:01:50.991Z,25.85
2017-07-06T10:04:18.654Z,25.81
2017-07-06T10:06:46.212Z,25.92
2017-07-06T10:09:13.731Z,26.22
2017-07-06T10:11:41.495Z,26.34
2017-07-06T10:14:09.131Z,26.45
2017-07-06T10:16:36.672Z,26.43
2017-07-06T10:19:04.242Z,26.55
2017-07-06T10:21:31.831Z,26.55
2017-07-06T10:23:59.447Z,26.36
2017-07-06T10:26:26.982Z,26.52
2017-07-06T10:28:54.551Z,26.82
2017-07-06T10:31:22.079Z,26.82
2017-07-06T10:33:49.639Z,26.99
2017-07-06T10:36:17.160Z,27.23
2017-07-06T10:38:44.851Z,27.48
2017-07-06T10:41:12.384Z,27.67
2017-07-06T10:43:39.898Z,27.93
2017-07-06T10:46:07.458Z,28.15
2017-07-06T10:48:34.977Z,28.37
2017-07-06T10:51:02.536Z,28.24
2017-07-06T10:53:30.063Z,28.20
2017-07-06T10:55:57.619Z,28.47
2017-07-06T10:58:25.144Z,28.63
2017-07-06T11:00:52.679Z,28.67
2017-07-06T11:03:20.240Z,28.62
2017-07-06T11:05:47.765Z,28.57
2017-07-06T11:08:15.353Z,28.97
2017-07-06T11:10:42.892Z,29.16
2017-07-06T11:13:10.451Z,29.27
2017-07-06T11:15:37.975Z,29.16
2017-07-06T11:18:05.649Z,29.57
2017-07-06T11:20:33.175Z,29.78
2017-07-06T11:23:00.748Z,29.94
2017-07-06T11:25:28.403Z,30.17
2017-07-06T11:27:55.909Z,30.39
2017-07-06T11:30:23.478Z,30.62
2017-07-06T11:32:51.091Z,30.51
2017-07-06T11:35:18.660Z,30.68
2017-07-06T11:37:46.252Z,30.95
2017-07-06T11:40:13.891Z,30.95
2017-07-06T11:42:41.539Z,31.20
2017-07-06T11:45:09.125Z,31.00
2017-07-06T11:47:36.712Z,31.22
2017-07-06T11:50:04.230Z,30.58
2017-07-06T11:52:31.788Z,30.47
2017-07-06T11:54:59.457Z,30.85
2017-07-06T11:57:26.970Z,30.66
2017-07-06T11:59:54.532Z,30.95
2017-07-06T12:04:55.863Z,30.43
2017-07-06T12:07:23.379Z,30.40
2017-07-06T12:09:51.056Z,30.11
2017-07-06T12:12:18.568Z,30.19
2017-07-06T12:14:46.093Z,30.44
2017-07-06T12:17:13.681Z,30.28
2017-07-06T12:19:41.259Z,30.46
2017-07-06T12:22:08.890Z,30.60
2017-07-06T12:24:36.463Z,30.71
2017-07-06T12:27:05.008Z,30.68
2017-07-06T12:29:32.555Z,30.88
2017-07-06T12:32:00.085Z,31.15
2017-07-06T12:34:27.647Z,31.21
2017-07-06T12:36:55.209Z,31.19
2017-07-06T12:39:22.821Z,31.28
2017-07-06T12:41:50.415Z,31.50
2017-07-06T12:44:17.976Z,31.90
2017-07-06T12:46:45.590Z,32.11
2017-07-06T12:49:13.169Z,32.19
2017-07-06T12:51:40.688Z,32.16
2017-07-06T12:54:08.240Z,32.38
2017-07-06T12:56:35.756Z,32.83
2017-07-06T12:59:03.386Z,32.99
2017-07-06T13:01:30.963Z,32.98
2017-07-06T13:03:58.545Z,32.62
2017-07-06T13:06:26.124Z,32.34
2017-07-06T13:08:53.645Z,31.99
2017-07-06T13:11:21.499Z,31.95
2017-07-06T13:13:49.025Z,31.89
2017-07-06T13:16:16.557Z,31.78
2017-07-06T13:18:44.218Z,31.76
2017-07-06T13:21:11.748Z,31.86
2017-07-06T13:23:39.424Z,31.90
2017-07-06T13:26:06.947Z,31.61
2017-07-06T13:28:34.613Z,31.77
2017-07-06T13:31:02.176Z,31.38
2017-07-06T13:33:29.893Z,31.17
2017-07-06T13:35:57.409Z,31.19
2017-07-06T13:38:24.984Z,30.96
2017-07-06T13:40:52.537Z,30.83
2017-07-06T13:43:20.064Z,30.71
2017-07-06T13:45:47.618Z,30.66
2017-07-06T13:48:15.139Z,30.41
2017-07-06T13:50:42.712Z,30.41
2017-07-06T13:53:10.233Z,30.18
2017-07-06T13:55:37.932Z,30.19
2017-07-06T13:58:05.596Z,30.09
2017-07-06T14:00:33.185Z,30.01
2017-07-06T14:03:00.800Z,29.91
2017-07-06T14:05:29.310Z,29.82
2017-07-06T14:07:56.830Z,29.64
2017-07-06T14:10:24.384Z,29.66
2017-07-06T14:12:51.917Z,29.62
2017-07-06T14:15:19.431Z,29.63
2017-07-06T14:17:46.976Z,29.51
2017-07-06T14:20:14.493Z,29.37
2017-07-06T14:22:42.024Z,29.40
2017-07-06T14:25:09.540Z,29.24
2017-07-06T14:27:37.082Z,29.24
2017-07-06T14:30:04.610Z,29.18
2017-07-06T14:32:32.162Z,29.14
2017-07-06T14:34:59.689Z,29.10
2017-07-06T14:37:27.268Z,29.09
2017-07-06T14:39:54.783Z,28.82
2017-07-06T14:42:22.307Z,28.53
2017-07-06T14:44:49.863Z,27.40
2017-07-06T14:47:17.423Z,26.27
2017-07-06T14:49:44.987Z,25.41
2017-07-06T14:52:12.537Z,24.43
2017-07-06T14:54:40.088Z,24.03
2017-07-06T14:57:07.637Z,23.71
2017-07-06T14:59:35.199Z,23.71
2017-07-06T15:02:02.767Z,23.79
2017-07-06T15:04:30.339Z,24.11
2017-07-06T15:06:57.915Z,24.27
2017-07-06T15:09:25.574Z,24.19
2017-07-06T15:11:53.180Z,24.11
2017-07-06T15:14:20.708Z,23.99
2017-07-06T15:16:48.284Z,24.19
2017-07-06T15:19:15.965Z,24.29
2017-07-06T15:21:43.563Z,24.14
2017-07-06T15:24:11.091Z,24.22
2017-07-06T15:26:38.667Z,24.45
2017-07-06T15:29:06.243Z,24.38
2017-07-06T15:31:33.871Z,24.44
2017-07-06T15:34:01.782Z,24.56
2017-07-06T15:36:29.488Z,24.67
2017-07-06T15:38:57.016Z,24.89
2017-07-06T15:41:24.548Z,25.11
2017-07-06T15:43:52.109Z,25.22
2017-07-06T15:46:19.766Z,25.16
2017-07-06T15:48:47.332Z,25.50
2017-07-06T15:51:14.854Z,25.59
2017-07-06T15:53:42.416Z,25.50
2017-07-06T15:56:09.943Z,25.84
2017-07-06T15:58:37.508Z,25.88
2017-07-06T16:01:05.024Z,26.22
2017-07-06T16:03:32.600Z,26.43
2017-07-06T16:06:00.136Z,26.70
2017-07-06T16:08:27.702Z,26.73
2017-07-06T16:10:55.264Z,27.05
2017-07-06T16:13:22.776Z,27.12
2017-07-06T16:15:50.370Z,26.79
2017-07-06T16:18:17.963Z,26.66
2017-07-06T16:20:45.531Z,26.36
2017-07-06T16:23:13.114Z,26.11
2017-07-06T16:25:40.721Z,25.70
2017-07-06T16:28:08.333Z,25.52
2017-07-06T16:30:35.852Z,25.61
2017-07-06T16:33:03.518Z,25.46
2017-07-06T16:35:31.093Z,25.25
2017-07-06T16:37:58.597Z,25.20
2017-07-06T16:40:26.164Z,25.20
2017-07-06T16:42:53.680Z,25.14
2017-07-06T16:45:21.235Z,25.13
2017-07-06T16:47:48.753Z,25.12
2017-07-06T16:50:16.312Z,25.08
2017-07-06T16:52:43.895Z,25.06
2017-07-06T16:55:11.466Z,25.01
2017-07-06T16:57:38.982Z,25.00
2017-07-06T17:00:06.487Z,24.84
2017-07-06T17:02:34.058Z,24.74
2017-07-06T17:05:01.571Z,24.19
2017-07-06T17:07:29.123Z,24.44
2017-07-06T17:09:56.648Z,24.73
2017-07-06T17:12:24.195Z,24.89
2017-07-06T17:14:52.539Z,24.54
2017-07-06T17:17:20.087Z,24.79
2017-07-06T17:19:47.623Z,25.08
2017-07-06T17:22:15.242Z,25.25
2017-07-06T17:24:42.762Z,25.74
2017-07-06T17:27:10.324Z,26.24
2017-07-06T17:29:37.856Z,26.00
2017-07-06T17:32:05.399Z,25.83
2017-07-06T17:34:32.904Z,25.45
2017-07-06T17:37:00.524Z,24.91
2017-07-06T17:39:28.042Z,24.91
2017-07-06T17:41:55.564Z,24.75
2017-07-06T17:44:23.119Z,25.17
2017-07-06T17:46:50.666Z,25.63
2017-07-06T17:49:18.215Z,25.26
2017-07-06T17:51:45.738Z,25.12
2017-07-06T17:54:13.425Z,24.75
2017-07-06T17:56:40.961Z,24.69
2017-07-06T17:59:08.474Z,24.36
2017-07-06T18:01:36.044Z,24.28
2017-07-06T18:04:03.576Z,24.33
2017-07-06T18:06:31.124Z,24.26
2017-07-06T18:08:58.650Z,24.24
2017-07-06T18:11:26.205Z,24.19
2017-07-06T18:13:53.752Z,24.12
2017-07-06T18:16:21.309Z,24.22
2017-07-06T18:18:48.849Z,24.11
2017-07-06T18:21:16.420Z,24.08
2017-07-06T18:23:43.955Z,24.22
2017-07-06T18:26:11.531Z,24.29
2017-07-06T18:28:39.050Z,24.29
2017-07-06T18:31:06.599Z,24.31
2017-07-06T18:33:34.126Z,24.32
2017-07-06T18:36:01.664Z,24.13
2017-07-06T18:38:29.244Z,24.20
2017-07-06T18:40:56.820Z,24.21
2017-07-06T18:43:24.380Z,24.12
2017-07-06T18:45:51.899Z,24.28
2017-07-06T18:48:19.468Z,24.26
2017-07-06T18:50:47.041Z,24.19
2017-07-06T18:53:14.579Z,24.30
2017-07-06T18:55:42.102Z,24.21
2017-07-06T18:58:09.639Z,24.17
2017-07-06T19:00:37.162Z,24.27
2017-07-06T19:03:04.720Z,24.33
2017-07-06T19:05:32.259Z,24.20
2017-07-06T19:07:59.799Z,24.23
2017-07-06T19:10:27.353Z,24.23
2017-07-06T19:12:54.922Z,24.21
2017-07-06T19:15:22.434Z,24.12
2017-07-06T19:17:49.985Z,24.02
2017-07-06T19:20:17.516Z,24.12
2017-07-06T19:22:45.103Z,24.08
2017-07-06T19:25:12.633Z,23.93
2017-07-06T19:27:40.137Z,23.91
2017-07-06T19:30:07.681Z,23.98
2017-07-06T19:32:35.179Z,23.80
2017-07-06T19:35:02.715Z,23.66
2017-07-06T19:37:30.233Z,23.45
2017-07-06T19:39:57.809Z,23.51
2017-07-06T19:42:25.337Z,23.63
2017-07-06T19:44:52.897Z,23.55
2017-07-06T19:47:20.412Z,23.50
2017-07-06T19:49:48.004Z,23.40
2017-07-06T19:52:15.538Z,23.22
2017-07-06T19:54:43.043Z,23.18
2017-07-06T19:57:10.572Z,23.11
2017-07-06T19:59:38.184Z,23.29
2017-07-06T20:02:05.824Z,23.36
2017-07-06T20:04:33.358Z,23.39
2017-07-06T20:07:00.972Z,23.37
2017-07-06T20:09:28.504Z,23.46
2017-07-06T20:11:56.169Z,23.34
2017-07-06T20:14:23.729Z,23.42
2017-07-06T20:16:51.333Z,23.32
2017-07-06T20:19:18.860Z,23.24
2017-07-06T20:21:46.425Z,23.28
2017-07-06T20:24:13.971Z,23.38
2017-07-06T20:26:41.529Z,23.19
2017-07-06T20:29:09.049Z,23.10
2017-07-06T20:31:36.606Z,23.04
2017-07-06T20:34:04.146Z,23.15
2017-07-06T20:36:31.721Z,23.07
2017-07-06T20:38:59.254Z,22.99
2017-07-06T20:41:26.784Z,23.09
2017-07-06T20:43:54.366Z,23.08
2017-07-06T20:46:21.887Z,23.09
2017-07-06T20:48:49.450Z,23.14
2017-07-06T20:51:17.063Z,23.20
2017-07-06T20:53:44.626Z,23.17
2017-07-06T20:56:12.162Z,23.07
2017-07-06T20:58:39.711Z,23.04
2017-07-06T21:01:07.288Z,23.11
2017-07-06T21:03:34.838Z,23.16
2017-07-06T21:06:02.358Z,23.01
2017-07-06T21:08:29.962Z,22.95
2017-07-06T21:10:57.488Z,22.97
2017-07-06T21:13:25.036Z,22.94
2017-07-06T21:15:52.627Z,22.90
2017-07-06T21:18:20.188Z,22.84
2017-07-06T21:20:47.871Z,22.89
2017-07-06T21:23:15.417Z,22.92
2017-07-06T21:25:42.922Z,22.83
2017-07-06T21:28:10.479Z,22.92
2017-07-06T21:30:38.006Z,22.89
2017-07-06T21:33:06.199Z,22.80
2017-07-06T21:35:33.763Z,22.85
2017-07-06T21:38:01.399Z,22.76
2017-07-06T21:40:28.944Z,22.86
2017-07-06T21:42:56.503Z,22.84
2017-07-06T21:45:24.025Z,22.86
2017-07-06T21:47:51.580Z,22.84
2017-07-06T21:50:19.099Z,22.95
2017-07-06T21:52:46.716Z,22.85
2017-07-06T21:55:14.304Z,22.77
2017-07-06T21:57:41.840Z,22.86
2017-07-06T22:00:09.389Z,22.99
2017-07-06T22:02:36.943Z,23.06
2017-07-06T22:05:04.594Z,23.08
2017-07-06T22:07:32.112Z,22.85
2017-07-06T22:09:59.684Z,22.63
2017-07-06T22:12:27.209Z,22.72
2017-07-06T22:14:54.788Z,22.79
2017-07-06T22:17:22.419Z,22.63
2017-07-06T22:19:49.968Z,22.76
2017-07-06T22:22:17.526Z,22.58
2017-07-06T22:24:45.101Z,22.65
2017-07-06T22:27:12.684Z,22.45
2017-07-06T22:29:40.260Z,22.41
2017-07-06T22:32:07.792Z,22.39
2017-07-06T22:34:35.412Z,22.56
2017-07-06T22:37:02.939Z,22.52
2017-07-06T22:39:30.487Z,22.69
2017-07-06T22:41:58.017Z,22.59
2017-07-06T22:44:25.575Z,22.42
2017-07-06T22:46:53.127Z,22.39
2017-07-06T22:49:20.699Z,22.43
2017-07-06T22:51:48.223Z,22.51
2017-07-06T22:54:15.948Z,22.60
2017-07-06T22:56:43.559Z,22.75
2017-07-06T22:59:11.089Z,22.81
2017-07-06T23:01:38.749Z,22.69
2017-07-06T23:04:06.446Z,22.64
2017-07-06T23:06:33.960Z,22.72
2017-07-06T23:09:01.605Z,22.94
2017-07-06T23:11:29.163Z,22.86
2017-07-06T23:13:56.693Z,22.77
2017-07-06T23:16:24.350Z,22.71
2017-07-06T23:18:51.984Z,22.69
2017-07-06T23:21:19.567Z,22.75
2017-07-06T23:23:47.180Z,22.87
2017-07-06T23:26:14.786Z,22.69
2017-07-06T23:28:42.295Z,22.43
2017-07-06T23:31:09.859Z,22.19
2017-07-06T23:33:37.404Z,22.31
2017-07-06T23:36:04.949Z,22.25
2017-07-06T23:38:32.491Z,22.31
2017-07-06T23:41:00.027Z,22.17
2017-07-06T23:43:27.604Z,22.18
2017-07-06T23:45:55.215Z,22.52
2017-07-06T23:48:22.782Z,22.49
2017-07-06T23:50:50.358Z,22.48
2017-07-06T23:53:17.888Z,22.59
2017-07-06T23:55:45.444Z,22.46
2017-07-06T23:58:12.968Z,22.38
